Time;durP1;ratioP1;P1;durP2;ratioP2;P2;SDS_P1;SDS_P2;PMS_P1;PMS_P2;Temp;Humidity;BMP_temperature;BMP_pressure;BME280_temperature;BME280_humidity;BME280_pressure;Samples;Min_cycle;Max_cycle;Signal;HPM_P1;HPM_P2
2023/05/28 00:00:27;;;;;;;12.40;4.00;;;;;;;;;;4997344;28;20457;-69
2023/05/28 00:02:57;;;;;;;14.70;4.73;;;;;;;;;;5002513;28;20463;-70
2023/05/28 00:05:28;;;;;;;8.60;4.03;;;;;;;;;;4999175;28;20575;-70
2023/05/28 00:08:00;;;;;;;11.40;4.00;;;;;;;;;;5000179;28;20451;-69
2023/05/28 00:10:28;;;;;;;9.00;4.27;;;;;;;;;;4997739;28;20454;-69
2023/05/28 00:12:56;;;;;;;14.40;4.90;;;;;;;;;;4997660;28;20535;-69
2023/05/28 00:15:24;;;;;;;9.50;3.70;;;;;;;;;;4998273;28;20829;-70
2023/05/28 00:17:53;;;;;;;11.90;4.10;;;;;;;;;;4997661;28;20468;-70
2023/05/28 00:20:22;;;;;;;10.03;3.70;;;;;;;;;;4998750;28;20449;-69
2023/05/28 00:22:51;;;;;;;12.30;6.03;;;;;;;;;;4997084;28;20530;-69
2023/05/28 00:25:21;;;;;;;8.37;3.97;;;;;;;;;;4999026;28;20877;-69
2023/05/28 00:30:40;;;;;;;12.43;6.67;;;;;;;;;;4998825;28;20463;-71
2023/05/28 00:33:08;;;;;;;15.07;5.93;;;;;;;;;;4999018;28;20460;-70
2023/05/28 00:35:37;;;;;;;11.73;5.00;;;;;;;;;;5000095;28;20464;-70
2023/05/28 00:38:05;;;;;;;13.90;6.67;;;;;;;;;;4999513;28;20488;-71
2023/05/28 00:40:33;;;;;;;13.40;5.93;;;;;;;;;;5000772;28;21096;-69
2023/05/28 00:43:01;;;;;;;10.90;5.67;;;;;;;;;;4999536;28;20804;-69
2023/05/28 00:45:31;;;;;;;11.43;5.80;;;;;;;;;;5000664;28;20527;-71
2023/05/28 00:48:03;;;;;;;13.53;6.10;;;;;;;;;;4998159;28;20551;-71
2023/05/28 00:50:33;;;;;;;12.33;5.73;;;;;;;;;;4997577;28;20598;-70
2023/05/28 00:53:08;;;;;;;8.30;3.67;;;;;;;;;;4996356;28;20452;-69
2023/05/28 00:55:36;;;;;;;11.87;4.37;;;;;;;;;;4997427;28;20464;-70
2023/05/28 00:58:05;;;;;;;8.80;3.73;;;;;;;;;;4996111;28;20452;-70
2023/05/28 01:00:33;;;;;;;12.80;3.97;;;;;;;;;;4988617;28;20464;-70
2023/05/28 01:03:01;;;;;;;8.70;4.10;;;;;;;;;;4996641;28;21104;-70
2023/05/28 01:05:31;;;;;;;9.67;4.33;;;;;;;;;;4996869;28;20457;-70
2023/05/28 01:08:00;;;;;;;8.63;4.30;;;;;;;;;;4998187;28;20547;-70
2023/05/28 01:10:31;;;;;;;13.10;6.10;;;;;;;;;;4998483;28;20496;-71
2023/05/28 01:12:59;;;;;;;10.43;5.53;;;;;;;;;;4999730;28;20460;-71
2023/05/28 01:15:40;;;;;;;8.17;4.87;;;;;;;;;;4996128;28;20917;-72
2023/05/28 01:18:08;;;;;;;9.63;5.73;;;;;;;;;;4998847;28;20495;-69
2023/05/28 01:20:36;;;;;;;12.00;5.60;;;;;;;;;;4999194;28;20463;-70
2023/05/28 01:23:07;;;;;;;13.73;5.13;;;;;;;;;;4999697;28;20483;-70
2023/05/28 01:25:38;;;;;;;9.53;4.93;;;;;;;;;;4999215;28;20492;-69
2023/05/28 01:28:13;;;;;;;14.07;7.43;;;;;;;;;;4999603;28;20496;-70
2023/05/28 01:30:41;;;;;;;8.53;4.70;;;;;;;;;;4999348;28;20502;-69
2023/05/28 01:33:11;;;;;;;6.10;4.40;;;;;;;;;;5002270;28;20462;-69
2023/05/28 01:35:38;;;;;;;12.20;5.13;;;;;;;;;;5012008;28;20540;-70
2023/05/28 01:38:07;;;;;;;8.53;5.00;;;;;;;;;;5001088;28;20784;-70
2023/05/28 01:40:35;;;;;;;9.90;4.10;;;;;;;;;;5002119;28;20458;-70
2023/05/28 01:43:07;;;;;;;8.33;4.37;;;;;;;;;;5001244;28;20560;-69
2023/05/28 01:45:37;;;;;;;8.83;4.50;;;;;;;;;;4980401;28;20845;-71
2023/05/28 01:48:05;;;;;;;6.60;3.67;;;;;;;;;;4997539;28;20472;-70
2023/05/28 01:50:34;;;;;;;7.67;4.10;;;;;;;;;;5002609;28;20943;-71
2023/05/28 01:53:04;;;;;;;9.43;3.90;;;;;;;;;;5001949;28;20460;-71
2023/05/28 01:55:32;;;;;;;11.17;4.67;;;;;;;;;;4983736;28;20531;-70
2023/05/28 01:58:01;;;;;;;9.80;5.20;;;;;;;;;;5000921;28;20464;-70
2023/05/28 02:00:30;;;;;;;10.37;5.00;;;;;;;;;;5001337;28;20902;-69
2023/05/28 02:02:58;;;;;;;9.80;4.53;;;;;;;;;;5001184;28;20488;-69
2023/05/28 02:05:27;;;;;;;6.80;4.43;;;;;;;;;;4999542;28;20956;-70
2023/05/28 02:07:56;;;;;;;9.70;4.70;;;;;;;;;;5000143;28;20567;-69
2023/05/28 02:10:24;;;;;;;8.90;4.90;;;;;;;;;;5000106;28;20564;-70
2023/05/28 02:12:52;;;;;;;12.20;4.40;;;;;;;;;;5001498;28;20504;-70
2023/05/28 02:15:22;;;;;;;8.07;4.60;;;;;;;;;;5015290;28;20466;-69
2023/05/28 02:17:54;;;;;;;13.93;4.20;;;;;;;;;;5021249;28;20882;-70
2023/05/28 02:20:22;;;;;;;11.23;4.70;;;;;;;;;;5022321;28;20748;-69
2023/05/28 02:22:50;;;;;;;10.53;4.47;;;;;;;;;;5020482;28;20772;-68
2023/05/28 02:25:17;;;;;;;8.47;4.57;;;;;;;;;;5021841;28;20535;-68
2023/05/28 02:27:45;;;;;;;8.83;4.50;;;;;;;;;;5016548;28;20473;-69
2023/05/28 02:30:16;;;;;;;7.50;3.90;;;;;;;;;;5002849;28;20494;-69
2023/05/28 02:32:44;;;;;;;6.70;4.40;;;;;;;;;;5001602;28;20530;-68
2023/05/28 02:35:15;;;;;;;8.33;4.10;;;;;;;;;;5002408;28;20523;-68
2023/05/28 02:37:43;;;;;;;7.87;3.97;;;;;;;;;;5001201;28;20878;-69
2023/05/28 02:42:58;;;;;;;8.63;4.60;;;;;;;;;;4817131;26;20483;-79
2023/05/28 02:45:25;;;;;;;5.47;3.80;;;;;;;;;;4988604;28;20477;-81
2023/05/28 02:47:53;;;;;;;8.23;4.40;;;;;;;;;;4987738;28;20471;-82
2023/05/28 02:50:22;;;;;;;6.30;3.67;;;;;;;;;;4986131;28;21174;-82
2023/05/28 02:52:49;;;;;;;10.00;4.47;;;;;;;;;;4988949;28;20540;-82
2023/05/28 02:55:16;;;;;;;14.33;4.60;;;;;;;;;;4988290;28;20465;-83
2023/05/28 02:57:43;;;;;;;12.23;5.00;;;;;;;;;;4989797;28;20458;-81
2023/05/28 03:00:12;;;;;;;7.23;3.80;;;;;;;;;;4987523;28;20465;-80
2023/05/28 03:02:39;;;;;;;7.70;4.70;;;;;;;;;;4988384;28;20464;-82
2023/05/28 03:05:07;;;;;;;6.47;3.60;;;;;;;;;;4988864;28;20501;-79
2023/05/28 03:07:36;;;;;;;9.30;4.00;;;;;;;;;;4989668;28;20462;-81
2023/05/28 03:10:07;;;;;;;6.73;3.60;;;;;;;;;;4990177;28;20852;-81
2023/05/28 03:12:36;;;;;;;6.23;3.93;;;;;;;;;;4987680;28;20489;-81
2023/05/28 03:15:03;;;;;;;6.80;4.03;;;;;;;;;;4989692;28;20445;-81
2023/05/28 03:17:31;;;;;;;9.77;4.57;;;;;;;;;;4989258;28;20557;-82
2023/05/28 03:19:58;;;;;;;9.17;3.80;;;;;;;;;;4989119;28;20481;-80
2023/05/28 03:22:26;;;;;;;8.00;3.70;;;;;;;;;;4987382;28;20465;-81
2023/05/28 03:24:56;;;;;;;8.70;3.93;;;;;;;;;;4987877;28;20476;-81
2023/05/28 03:27:24;;;;;;;7.33;4.40;;;;;;;;;;4987568;28;20537;-81
2023/05/28 03:29:51;;;;;;;8.40;4.10;;;;;;;;;;4987394;28;20494;-80
2023/05/28 03:32:19;;;;;;;9.90;4.50;;;;;;;;;;4984699;28;20491;-80
2023/05/28 03:34:46;;;;;;;6.20;4.13;;;;;;;;;;4987202;28;20536;-81
2023/05/28 03:37:13;;;;;;;7.43;4.40;;;;;;;;;;4985643;28;20464;-81
2023/05/28 03:39:41;;;;;;;9.63;4.57;;;;;;;;;;4969109;28;20608;-79
2023/05/28 03:42:09;;;;;;;9.97;3.77;;;;;;;;;;4983893;28;20489;-81
2023/05/28 03:44:37;;;;;;;7.17;4.03;;;;;;;;;;4984467;28;20469;-82
2023/05/28 03:47:04;;;;;;;8.27;4.63;;;;;;;;;;4984787;28;20461;-82
2023/05/28 03:49:31;;;;;;;6.60;4.27;;;;;;;;;;4984705;28;20580;-82
2023/05/28 03:51:58;;;;;;;7.80;4.37;;;;;;;;;;4985186;28;20453;-82
2023/05/28 03:54:26;;;;;;;8.93;4.10;;;;;;;;;;4984179;28;20544;-80
2023/05/28 03:56:53;;;;;;;11.03;4.60;;;;;;;;;;4982571;28;20560;-81
2023/05/28 03:59:27;;;;;;;8.70;4.57;;;;;;;;;;4984282;28;20445;-79
2023/05/28 04:01:55;;;;;;;6.87;4.70;;;;;;;;;;4986023;28;20457;-81
2023/05/28 04:04:22;;;;;;;11.43;6.17;;;;;;;;;;4986571;28;20450;-80
2023/05/28 04:09:29;;;;;;;11.10;5.40;;;;;;;;;;1474506;26;20475;-70
2023/05/28 04:11:57;;;;;;;8.23;4.30;;;;;;;;;;4996625;28;20551;-71
2023/05/28 04:14:39;;;;;;;10.83;3.90;;;;;;;;;;4997382;28;20472;-70
2023/05/28 04:17:07;;;;;;;10.33;4.00;;;;;;;;;;4998026;28;20715;-70
2023/05/28 04:19:36;;;;;;;8.73;3.43;;;;;;;;;;4997861;28;20598;-69
2023/05/28 04:22:06;;;;;;;14.87;4.60;;;;;;;;;;4996457;28;20531;-71
2023/05/28 04:24:38;;;;;;;9.43;4.37;;;;;;;;;;4996416;28;20539;-70
2023/05/28 04:27:07;;;;;;;8.63;4.10;;;;;;;;;;4996962;28;20433;-70
2023/05/28 04:32:17;;;;;;;8.93;3.93;;;;;;;;;;4997160;28;20461;-71
2023/05/28 04:34:48;;;;;;;13.27;3.57;;;;;;;;;;4997596;28;20460;-71
2023/05/28 04:37:21;;;;;;;8.00;3.53;;;;;;;;;;4998001;28;20499;-71
2023/05/28 04:39:50;;;;;;;6.83;3.13;;;;;;;;;;4997918;28;20466;-71
2023/05/28 04:42:18;;;;;;;6.43;3.80;;;;;;;;;;4999148;28;20432;-70
2023/05/28 04:44:47;;;;;;;8.50;3.67;;;;;;;;;;4998050;28;20523;-70
2023/05/28 04:47:19;;;;;;;6.43;4.10;;;;;;;;;;4998694;28;20526;-70
2023/05/28 04:49:49;;;;;;;7.40;3.83;;;;;;;;;;4998057;28;20918;-70
2023/05/28 04:52:17;;;;;;;9.63;3.80;;;;;;;;;;4998393;28;20448;-70
2023/05/28 04:54:48;;;;;;;5.00;3.10;;;;;;;;;;5000247;28;20496;-71
2023/05/28 04:57:16;;;;;;;7.80;4.07;;;;;;;;;;4987926;28;20479;-70
2023/05/28 04:59:43;;;;;;;8.47;4.97;;;;;;;;;;4980364;28;20472;-71
2023/05/28 05:02:12;;;;;;;8.77;3.80;;;;;;;;;;4979909;28;20529;-70
2023/05/28 05:04:40;;;;;;;8.90;4.07;;;;;;;;;;4978366;28;20466;-71
2023/05/28 05:07:08;;;;;;;6.40;3.77;;;;;;;;;;4978824;28;20536;-70
2023/05/28 05:09:39;;;;;;;6.93;4.20;;;;;;;;;;4977865;28;20465;-71
2023/05/28 05:12:12;;;;;;;11.10;7.03;;;;;;;;;;4979717;28;20456;-72
2023/05/28 05:14:43;;;;;;;6.33;4.07;;;;;;;;;;4993582;28;20475;-69
2023/05/28 05:17:18;;;;;;;7.30;4.03;;;;;;;;;;4981657;28;20961;-72
2023/05/28 05:19:46;;;;;;;4.23;2.90;;;;;;;;;;4981856;28;20445;-70
2023/05/28 05:22:13;;;;;;;7.50;3.60;;;;;;;;;;4981837;28;20544;-71
2023/05/28 05:25:01;;;;;;;5.03;3.30;;;;;;;;;;4981728;28;20874;-70
2023/05/28 05:27:29;;;;;;;10.73;4.00;;;;;;;;;;4980769;28;20512;-70
2023/05/28 05:29:56;;;;;;;6.00;3.70;;;;;;;;;;4981742;28;20488;-70
2023/05/28 05:32:26;;;;;;;8.30;5.23;;;;;;;;;;4982135;28;20468;-71
2023/05/28 05:34:53;;;;;;;6.53;4.77;;;;;;;;;;4981437;28;20469;-70
2023/05/28 05:37:24;;;;;;;8.70;3.93;;;;;;;;;;4979899;28;20457;-70
2023/05/28 05:39:52;;;;;;;7.30;3.70;;;;;;;;;;4980413;28;20467;-71
2023/05/28 05:42:20;;;;;;;6.87;4.00;;;;;;;;;;4979364;28;20904;-70
2023/05/28 05:44:48;;;;;;;8.90;3.60;;;;;;;;;;4979358;28;20457;-70
2023/05/28 05:47:16;;;;;;;8.37;4.13;;;;;;;;;;4979284;28;20497;-70
2023/05/28 05:49:45;;;;;;;8.73;4.27;;;;;;;;;;4979364;28;20477;-70
2023/05/28 05:52:12;;;;;;;7.90;3.43;;;;;;;;;;4979761;28;20578;-71
2023/05/28 05:54:40;;;;;;;6.53;3.63;;;;;;;;;;4980362;28;20473;-70
2023/05/28 05:57:07;;;;;;;8.23;4.10;;;;;;;;;;4980203;28;20572;-71
2023/05/28 05:59:34;;;;;;;8.90;4.57;;;;;;;;;;4980496;28;20896;-71
2023/05/28 06:02:02;;;;;;;6.20;3.83;;;;;;;;;;4980241;28;20528;-71
2023/05/28 06:04:33;;;;;;;6.63;3.87;;;;;;;;;;4980260;28;20496;-70
2023/05/28 06:07:04;;;;;;;10.20;4.47;;;;;;;;;;4980451;28;20460;-70
2023/05/28 06:09:32;;;;;;;13.13;3.90;;;;;;;;;;4981400;28;20779;-70
2023/05/28 06:12:01;;;;;;;9.60;3.67;;;;;;;;;;4981929;28;21083;-69
2023/05/28 06:14:38;;;;;;;6.87;3.27;;;;;;;;;;4980322;28;20465;-71
2023/05/28 06:17:06;;;;;;;8.77;3.63;;;;;;;;;;4981522;28;20464;-72
2023/05/28 06:19:34;;;;;;;11.67;3.63;;;;;;;;;;4979283;28;20821;-71
2023/05/28 06:22:03;;;;;;;10.20;3.97;;;;;;;;;;4979106;28;20448;-72
2023/05/28 06:24:31;;;;;;;8.20;3.93;;;;;;;;;;4978934;28;20516;-72
2023/05/28 06:27:03;;;;;;;10.80;3.60;;;;;;;;;;4979343;28;20441;-72
2023/05/28 06:29:31;;;;;;;8.03;3.63;;;;;;;;;;4979311;28;20454;-70
2023/05/28 06:31:58;;;;;;;6.10;2.73;;;;;;;;;;4978140;28;20485;-70
2023/05/28 06:34:26;;;;;;;8.13;3.50;;;;;;;;;;4979653;28;20908;-69
2023/05/28 06:36:53;;;;;;;12.73;3.83;;;;;;;;;;4980026;28;20540;-70
2023/05/28 06:39:23;;;;;;;7.40;3.20;;;;;;;;;;4980613;28;20461;-71
2023/05/28 06:41:50;;;;;;;7.73;3.07;;;;;;;;;;4978693;28;20472;-69
2023/05/28 06:44:17;;;;;;;8.07;3.03;;;;;;;;;;4979341;28;20755;-72
2023/05/28 06:46:45;;;;;;;5.47;3.20;;;;;;;;;;4979713;28;20532;-72
2023/05/28 06:49:13;;;;;;;7.43;3.10;;;;;;;;;;4980287;28;20473;-71
2023/05/28 06:51:41;;;;;;;6.23;3.10;;;;;;;;;;4979090;28;20482;-71
2023/05/28 06:54:09;;;;;;;8.10;3.07;;;;;;;;;;4979251;28;20549;-71
2023/05/28 06:56:38;;;;;;;9.63;2.73;;;;;;;;;;4982230;28;20470;-72
2023/05/28 06:59:06;;;;;;;8.57;3.47;;;;;;;;;;4980317;28;20453;-71
2023/05/28 07:01:39;;;;;;;9.40;3.33;;;;;;;;;;4980301;28;20854;-72
2023/05/28 07:04:06;;;;;;;6.23;2.77;;;;;;;;;;4979850;28;20893;-72
2023/05/28 07:06:34;;;;;;;10.40;2.70;;;;;;;;;;4979438;28;20563;-72
2023/05/28 07:09:01;;;;;;;6.63;2.67;;;;;;;;;;4979157;28;20504;-71
2023/05/28 07:11:29;;;;;;;5.60;2.80;;;;;;;;;;4979410;28;20627;-72
2023/05/28 07:14:03;;;;;;;8.43;2.43;;;;;;;;;;4978838;28;20746;-72
2023/05/28 07:16:30;;;;;;;7.07;2.50;;;;;;;;;;4969018;28;20528;-72
2023/05/28 07:18:58;;;;;;;6.20;2.30;;;;;;;;;;4977797;28;20473;-72
2023/05/28 07:21:25;;;;;;;4.80;2.40;;;;;;;;;;4977630;28;20457;-73
2023/05/28 07:23:53;;;;;;;7.23;3.07;;;;;;;;;;4975836;28;21014;-72
2023/05/28 07:26:20;;;;;;;8.37;4.30;;;;;;;;;;4975824;28;20458;-72
2023/05/28 07:28:48;;;;;;;5.40;2.23;;;;;;;;;;4976868;28;20822;-72
2023/05/28 07:31:17;;;;;;;7.13;2.70;;;;;;;;;;4976662;28;20915;-72
2023/05/28 07:33:45;;;;;;;10.40;2.90;;;;;;;;;;4974890;28;20871;-71
2023/05/28 07:36:12;;;;;;;5.73;2.53;;;;;;;;;;4976946;28;20522;-72
2023/05/28 07:38:40;;;;;;;6.53;2.80;;;;;;;;;;4977045;28;20438;-72
2023/05/28 07:41:07;;;;;;;6.43;2.70;;;;;;;;;;4978686;28;20458;-72
2023/05/28 07:43:35;;;;;;;5.03;2.30;;;;;;;;;;4976939;28;20473;-72
2023/05/28 07:46:09;;;;;;;6.90;2.73;;;;;;;;;;4979339;28;20468;-72
2023/05/28 07:48:38;;;;;;;6.60;2.10;;;;;;;;;;4977732;28;20458;-72
2023/05/28 07:51:06;;;;;;;6.90;2.20;;;;;;;;;;4978759;28;20489;-74
2023/05/28 07:53:34;;;;;;;7.60;2.50;;;;;;;;;;4978390;28;20484;-72
2023/05/28 07:56:02;;;;;;;4.50;2.00;;;;;;;;;;4977539;28;20473;-72
2023/05/28 07:58:30;;;;;;;6.27;2.10;;;;;;;;;;4997491;28;20567;-73
2023/05/28 08:00:58;;;;;;;6.73;2.70;;;;;;;;;;4996877;28;20467;-72
2023/05/28 08:03:27;;;;;;;7.00;2.70;;;;;;;;;;4996085;28;20468;-72
2023/05/28 08:05:57;;;;;;;6.97;2.40;;;;;;;;;;4996426;28;20460;-71
2023/05/28 08:08:26;;;;;;;7.33;2.30;;;;;;;;;;4995937;28;20437;-71
2023/05/28 08:10:58;;;;;;;7.23;2.80;;;;;;;;;;4996049;28;20512;-72
2023/05/28 08:13:26;;;;;;;8.50;2.60;;;;;;;;;;4994291;28;20464;-71
2023/05/28 08:15:54;;;;;;;7.70;2.70;;;;;;;;;;4993783;28;20468;-72
2023/05/28 08:18:21;;;;;;;7.20;2.60;;;;;;;;;;4994984;28;20468;-71
2023/05/28 08:20:49;;;;;;;7.40;2.93;;;;;;;;;;4995332;28;20445;-72
2023/05/28 08:23:18;;;;;;;7.60;3.73;;;;;;;;;;4996344;28;20741;-72
2023/05/28 08:25:46;;;;;;;10.30;3.43;;;;;;;;;;4995727;28;20469;-72
2023/05/28 08:28:14;;;;;;;9.93;3.33;;;;;;;;;;4994485;28;20741;-73
2023/05/28 08:30:42;;;;;;;7.80;3.20;;;;;;;;;;4994655;28;20453;-73
2023/05/28 08:33:09;;;;;;;8.67;3.37;;;;;;;;;;4993323;28;20452;-72
2023/05/28 08:35:37;;;;;;;8.00;3.13;;;;;;;;;;4994201;28;21087;-72
2023/05/28 08:38:05;;;;;;;10.33;2.43;;;;;;;;;;4992379;28;20445;-73
2023/05/28 08:40:32;;;;;;;11.00;3.47;;;;;;;;;;5008004;23;20475;-80
2023/05/28 08:43:00;;;;;;;10.30;2.93;;;;;;;;;;4996954;28;20879;-79
2023/05/28 08:45:29;;;;;;;9.13;3.43;;;;;;;;;;5000166;28;20449;-81
2023/05/28 08:47:56;;;;;;;9.53;4.17;;;;;;;;;;5001006;28;20458;-80
2023/05/28 08:50:27;;;;;;;11.00;4.00;;;;;;;;;;5007359;28;20884;-81
2023/05/28 08:52:54;;;;;;;8.97;3.37;;;;;;;;;;5007789;28;20492;-82
2023/05/28 08:55:22;;;;;;;10.57;5.07;;;;;;;;;;5006764;28;20480;-79
2023/05/28 08:57:51;;;;;;;9.90;4.20;;;;;;;;;;5005972;28;20463;-79
2023/05/28 09:00:21;;;;;;;11.43;4.13;;;;;;;;;;5005215;28;20461;-80
2023/05/28 09:02:48;;;;;;;11.67;3.67;;;;;;;;;;5005386;28;20452;-82
2023/05/28 09:05:15;;;;;;;8.00;2.70;;;;;;;;;;5007072;28;20531;-82
2023/05/28 09:07:43;;;;;;;8.00;2.93;;;;;;;;;;5004056;28;20499;-81
2023/05/28 09:10:12;;;;;;;7.43;1.80;;;;;;;;;;5004888;28;20845;-79
2023/05/28 09:12:41;;;;;;;8.07;2.80;;;;;;;;;;4996490;28;20916;-81
2023/05/28 09:15:09;;;;;;;7.10;2.90;;;;;;;;;;4984942;28;20754;-81
2023/05/28 09:17:38;;;;;;;11.03;3.10;;;;;;;;;;4983874;28;20461;-79
2023/05/28 09:20:16;;;;;;;6.90;3.10;;;;;;;;;;4998278;28;20496;-80
2023/05/28 09:22:47;;;;;;;8.17;2.63;;;;;;;;;;5002992;28;20448;-79
2023/05/28 09:25:14;;;;;;;5.57;2.23;;;;;;;;;;5002000;28;20983;-81
2023/05/28 09:27:48;;;;;;;5.60;2.23;;;;;;;;;;4997845;28;20484;-80
2023/05/28 09:30:23;;;;;;;11.87;3.10;;;;;;;;;;5000462;28;20934;-80
2023/05/28 09:33:02;;;;;;;5.90;2.17;;;;;;;;;;4997940;28;20550;-81
2023/05/28 09:35:31;;;;;;;7.27;2.40;;;;;;;;;;4997480;28;20449;-79
2023/05/28 09:38:02;;;;;;;5.73;2.40;;;;;;;;;;4998465;28;20560;-79
2023/05/28 09:40:31;;;;;;;9.53;2.60;;;;;;;;;;4999100;28;20457;-83
2023/05/28 09:42:58;;;;;;;8.17;2.50;;;;;;;;;;4998900;28;20712;-80
2023/05/28 09:45:29;;;;;;;8.87;2.80;;;;;;;;;;4997064;28;20465;-80
2023/05/28 09:48:03;;;;;;;6.50;2.30;;;;;;;;;;4998831;28;20534;-82
2023/05/28 09:50:30;;;;;;;11.40;2.60;;;;;;;;;;4999350;28;20526;-80
2023/05/28 09:53:00;;;;;;;8.63;3.10;;;;;;;;;;4999220;28;20484;-82
2023/05/28 09:55:28;;;;;;;8.03;2.13;;;;;;;;;;5001266;28;20460;-82
2023/05/28 09:58:00;;;;;;;9.00;3.00;;;;;;;;;;5003758;28;20499;-80
2023/05/28 10:00:30;;;;;;;9.43;2.90;;;;;;;;;;5003183;28;20463;-80
2023/05/28 10:03:00;;;;;;;12.93;2.97;;;;;;;;;;5001551;28;20830;-82
2023/05/28 10:05:33;;;;;;;12.03;3.40;;;;;;;;;;5000986;28;20453;-81
2023/05/28 10:08:03;;;;;;;7.20;2.73;;;;;;;;;;5002144;28;20445;-81
2023/05/28 10:10:30;;;;;;;10.40;3.80;;;;;;;;;;5001334;28;20487;-80
2023/05/28 10:12:58;;;;;;;6.57;2.60;;;;;;;;;;4998792;28;20626;-80
2023/05/28 10:15:25;;;;;;;6.10;3.13;;;;;;;;;;5000806;28;20542;-80
2023/05/28 10:17:53;;;;;;;5.40;2.67;;;;;;;;;;5001944;28;20437;-80
2023/05/28 10:20:20;;;;;;;9.30;2.80;;;;;;;;;;5005186;28;20725;-81
2023/05/28 10:22:50;;;;;;;8.10;2.93;;;;;;;;;;5005578;28;20557;-81
2023/05/28 10:25:17;;;;;;;10.73;3.80;;;;;;;;;;5005121;28;20673;-80
2023/05/28 10:27:48;;;;;;;7.43;3.20;;;;;;;;;;5005776;28;20536;-79
2023/05/28 10:30:31;;;;;;;14.30;7.80;;;;;;;;;;5004826;28;20448;-81
2023/05/28 10:32:58;;;;;;;10.50;3.40;;;;;;;;;;5003611;28;20479;-81
2023/05/28 10:35:25;;;;;;;9.23;3.03;;;;;;;;;;5000978;28;20660;-81
2023/05/28 10:38:05;;;;;;;7.10;2.70;;;;;;;;;;5004301;28;20588;-81
2023/05/28 10:40:34;;;;;;;9.83;3.43;;;;;;;;;;5008290;28;20531;-81
2023/05/28 10:43:01;;;;;;;7.83;2.33;;;;;;;;;;5007857;28;20453;-80
2023/05/28 10:45:46;;;;;;;9.30;3.20;;;;;;;;;;5006235;28;20464;-81
2023/05/28 10:48:17;;;;;;;7.17;2.77;;;;;;;;;;5004353;28;20457;-82
2023/05/28 10:50:58;;;;;;;9.87;3.63;;;;;;;;;;5005855;28;20481;-81
2023/05/28 10:53:27;;;;;;;8.43;4.27;;;;;;;;;;5002891;28;20511;-81
2023/05/28 10:55:54;;;;;;;9.27;3.30;;;;;;;;;;5002419;28;20548;-81
2023/05/28 10:58:26;;;;;;;5.07;2.50;;;;;;;;;;5000898;28;20506;-79
2023/05/28 11:00:53;;;;;;;6.10;3.10;;;;;;;;;;5001766;28;20460;-80
2023/05/28 11:03:35;;;;;;;8.40;2.97;;;;;;;;;;5000927;28;20480;-78
2023/05/28 11:06:05;;;;;;;9.60;3.23;;;;;;;;;;5003286;28;20452;-81
2023/05/28 11:08:34;;;;;;;8.33;2.53;;;;;;;;;;5000927;28;20452;-78
2023/05/28 11:11:02;;;;;;;5.73;3.00;;;;;;;;;;5003263;28;20456;-80
2023/05/28 11:13:29;;;;;;;8.60;2.87;;;;;;;;;;5002096;28;20494;-80
2023/05/28 11:15:56;;;;;;;9.03;3.43;;;;;;;;;;5003183;28;20824;-80
2023/05/28 11:18:24;;;;;;;9.90;2.80;;;;;;;;;;5002618;28;20472;-80
2023/05/28 11:21:03;;;;;;;6.40;2.70;;;;;;;;;;5004891;28;20519;-80
2023/05/28 11:23:30;;;;;;;8.47;2.90;;;;;;;;;;5003326;28;20511;-79
2023/05/28 11:25:59;;;;;;;7.50;2.50;;;;;;;;;;5003491;28;20437;-80
2023/05/28 11:28:27;;;;;;;11.00;3.10;;;;;;;;;;5003946;28;20452;-78
2023/05/28 11:30:57;;;;;;;5.80;2.47;;;;;;;;;;5004928;28;20453;-79
2023/05/28 11:33:24;;;;;;;8.60;3.63;;;;;;;;;;5001497;28;20543;-81
2023/05/28 11:35:59;;;;;;;6.20;2.60;;;;;;;;;;5004826;28;20439;-81
2023/05/28 11:38:26;;;;;;;10.83;2.50;;;;;;;;;;5001141;28;20444;-80
2023/05/28 11:41:01;;;;;;;6.27;3.03;;;;;;;;;;5002242;28;20464;-78
2023/05/28 11:43:29;;;;;;;8.73;3.00;;;;;;;;;;5000024;28;20456;-78
2023/05/28 11:45:58;;;;;;;7.40;3.30;;;;;;;;;;5012358;28;20462;-79
2023/05/28 11:48:27;;;;;;;8.53;2.70;;;;;;;;;;4990405;28;20460;-79
2023/05/28 11:51:03;;;;;;;8.10;2.60;;;;;;;;;;4998502;28;20514;-79
2023/05/28 11:53:41;;;;;;;6.50;2.60;;;;;;;;;;4998142;28;20539;-80
2023/05/28 11:56:10;;;;;;;8.27;2.50;;;;;;;;;;4998324;28;20479;-79
2023/05/28 11:58:41;;;;;;;5.67;3.03;;;;;;;;;;4998151;28;20452;-79
2023/05/28 12:01:09;;;;;;;7.90;2.53;;;;;;;;;;5001162;28;20455;-79
2023/05/28 12:03:36;;;;;;;6.40;2.30;;;;;;;;;;4998880;28;21004;-79
2023/05/28 12:06:03;;;;;;;9.07;3.33;;;;;;;;;;4998894;28;20444;-80
2023/05/28 12:08:31;;;;;;;7.20;2.80;;;;;;;;;;4998308;28;20523;-82
2023/05/28 12:11:02;;;;;;;10.80;3.27;;;;;;;;;;5000941;28;20468;-80
2023/05/28 12:13:41;;;;;;;5.97;2.70;;;;;;;;;;4998380;28;20635;-80
2023/05/28 12:16:09;;;;;;;8.67;2.80;;;;;;;;;;5000930;28;20464;-80
2023/05/28 12:18:42;;;;;;;6.23;2.50;;;;;;;;;;5000117;28;20884;-80
2023/05/28 12:21:18;;;;;;;7.20;2.50;;;;;;;;;;5002782;28;20453;-78
2023/05/28 12:23:46;;;;;;;6.57;2.50;;;;;;;;;;5002773;28;20491;-79
2023/05/28 12:26:15;;;;;;;9.00;2.93;;;;;;;;;;5003689;28;20495;-80
2023/05/28 12:28:44;;;;;;;7.80;3.30;;;;;;;;;;5003607;28;20464;-80
